createdAt,value
2022-09-07T00:03:30.519Z,101215.94
2022-09-07T00:08:32.407Z,101218.22
2022-09-07T00:13:37.722Z,101210.00
2022-09-07T00:18:43.805Z,101205.25
2022-09-07T00:23:48.726Z,101177.81
2022-09-07T00:28:50.735Z,101165.69
2022-09-07T00:33:58.823Z,101160.72
2022-09-07T00:39:00.586Z,101141.72
2022-09-07T00:44:39.632Z,101113.75
2022-09-07T00:49:44.874Z,101101.59
2022-09-07T00:54:52.802Z,101100.50
2022-09-07T00:59:57.632Z,101098.13
2022-09-07T01:05:09.534Z,101077.69
2022-09-07T01:10:11.922Z,101080.13
2022-09-07T01:15:13.580Z,101072.66
2022-09-07T01:20:36.498Z,101070.63
2022-09-07T01:25:56.903Z,101067.53
2022-09-07T01:31:09.145Z,101067.53
2022-09-07T01:36:26.238Z,101064.03
2022-09-07T01:41:42.979Z,101062.56
2022-09-07T01:46:53.818Z,101066.16
2022-09-07T01:52:04.683Z,101069.09
2022-09-07T01:57:14.318Z,101073.00
2022-09-07T02:02:29.470Z,101066.78
2022-09-07T02:07:40.315Z,101080.47
2022-09-07T02:12:52.536Z,101082.72
2022-09-07T02:18:04.852Z,101083.81
2022-09-07T02:23:16.051Z,101095.91
2022-09-07T02:28:24.873Z,101094.00
2022-09-07T02:33:27.898Z,101110.31
2022-09-07T02:38:30.200Z,101093.13
2022-09-07T02:43:32.908Z,101105.38
2022-09-07T02:48:52.978Z,101110.09
2022-09-07T02:54:15.758Z,101115.56
2022-09-07T02:59:26.016Z,101103.56
2022-09-07T03:05:05.525Z,101091.59
2022-09-07T03:10:08.636Z,101080.03
2022-09-07T03:15:13.119Z,101072.38
2022-09-07T03:20:17.100Z,101068.75
2022-09-07T03:25:19.404Z,101063.91
2022-09-07T03:30:21.200Z,101062.69
2022-09-07T03:35:22.831Z,101076.97
2022-09-07T03:40:25.468Z,101065.63
2022-09-07T03:45:27.135Z,101064.72
2022-09-07T03:50:33.001Z,101060.50
2022-09-07T03:55:34.674Z,101059.72
2022-09-07T04:00:41.455Z,101053.78
2022-09-07T04:05:43.012Z,101047.84
2022-09-07T04:10:44.726Z,101033.75
2022-09-07T04:15:47.612Z,101028.31
2022-09-07T04:20:52.040Z,101024.41
2022-09-07T04:25:53.752Z,101036.56
2022-09-07T04:30:55.487Z,101032.53
2022-09-07T04:36:00.269Z,101046.84
2022-09-07T04:41:06.729Z,101052.91
2022-09-07T04:46:17.567Z,101042.28
2022-09-07T04:51:21.200Z,101048.16
2022-09-07T04:56:23.670Z,101050.34
2022-09-07T05:01:26.244Z,101052.91
2022-09-07T05:06:28.352Z,101052.63
2022-09-07T05:11:30.313Z,101048.41
2022-09-07T05:16:38.289Z,101050.09
2022-09-07T05:21:40.226Z,101047.53
2022-09-07T05:26:42.217Z,101043.91
2022-09-07T05:31:43.868Z,101057.19
2022-09-07T05:36:45.621Z,101060.16
2022-09-07T05:41:47.683Z,101057.16
2022-09-07T05:46:49.399Z,101065.91
2022-09-07T05:51:51.096Z,101065.31
2022-09-07T05:56:52.803Z,101070.91
2022-09-07T06:01:54.567Z,101076.31
2022-09-07T06:07:19.966Z,101076.31
2022-09-07T06:12:18.023Z,101076.28
2022-09-07T06:17:19.787Z,101063.03
2022-09-07T06:22:21.633Z,101081.19
2022-09-07T06:27:23.611Z,101081.00
2022-09-07T06:37:44.153Z,101082.91
2022-09-07T06:42:46.926Z,101091.03
2022-09-07T06:47:54.034Z,101106.63
2022-09-07T06:58:17.478Z,101124.78
2022-09-07T07:03:19.419Z,101125.59
2022-09-07T07:08:23.352Z,101117.25
2022-09-07T07:13:25.126Z,101118.09
2022-09-07T07:18:27.884Z,101119.53
2022-09-07T07:23:29.800Z,101127.44
2022-09-07T07:33:53.828Z,101123.19
2022-09-07T07:44:03.370Z,101138.53
2022-09-07T07:49:05.077Z,101138.44
2022-09-07T07:54:06.667Z,101140.16
2022-09-07T07:59:15.041Z,101136.50
2022-09-07T08:04:17.339Z,101135.94
2022-09-07T08:09:18.979Z,101150.66
2022-09-07T08:14:21.965Z,101153.78
2022-09-07T08:19:23.649Z,101156.50
2022-09-07T08:24:32.817Z,101140.44
2022-09-07T08:29:35.589Z,101139.34
2022-09-07T08:34:37.452Z,101139.84
2022-09-07T08:39:39.126Z,101132.31
2022-09-07T08:44:49.877Z,101123.00
2022-09-07T08:50:12.161Z,101128.19
2022-09-07T08:55:13.747Z,101139.22
2022-09-07T09:00:17.659Z,101132.41
2022-09-07T09:05:57.755Z,101132.03
2022-09-07T09:10:59.461Z,101142.16
2022-09-07T09:16:28.204Z,101144.47
2022-09-07T09:21:30.285Z,101138.28
2022-09-07T09:26:34.405Z,101129.97
2022-09-07T09:31:36.172Z,101129.97
2022-09-07T09:36:49.566Z,101139.06
2022-09-07T09:41:51.638Z,101144.84
2022-09-07T09:52:30.001Z,101135.44
2022-09-07T10:09:02.401Z,101132.50
2022-09-07T10:14:04.494Z,101122.41
2022-09-07T10:19:06.436Z,101131.06
2022-09-07T10:24:07.995Z,101126.53
2022-09-07T10:29:24.824Z,101130.75
2022-09-07T10:34:56.149Z,101128.94
2022-09-07T10:40:26.008Z,101128.41
2022-09-07T10:45:58.644Z,101130.63
2022-09-07T10:51:14.102Z,101129.56
2022-09-07T10:56:27.855Z,101113.53
2022-09-07T11:01:52.816Z,101113.41
2022-09-07T11:07:16.216Z,101115.09
2022-09-07T11:12:39.272Z,101113.75
2022-09-07T11:17:49.365Z,101119.22
2022-09-07T11:23:07.014Z,101101.75
2022-09-07T11:28:23.070Z,101102.72
2022-09-07T11:33:32.167Z,101117.97
2022-09-07T11:38:49.676Z,101098.34
2022-09-07T11:43:58.239Z,101112.41
2022-09-07T11:49:00.050Z,101098.50
2022-09-07T11:54:19.880Z,101103.19
2022-09-07T11:59:36.751Z,101098.19
2022-09-07T12:04:58.986Z,101088.00
2022-09-07T12:10:28.321Z,101086.59
2022-09-07T12:15:48.150Z,101085.28
2022-09-07T12:20:50.177Z,101090.31
2022-09-07T12:25:52.599Z,101091.16
2022-09-07T12:31:00.301Z,101086.34
2022-09-07T12:36:22.844Z,101091.97
2022-09-07T12:41:39.676Z,101083.25
2022-09-07T12:46:46.730Z,101078.88
2022-09-07T12:52:04.989Z,101086.16
2022-09-07T12:57:36.252Z,101074.75
2022-09-07T13:03:00.600Z,101077.34
2022-09-07T13:08:24.195Z,101076.09
2022-09-07T13:18:52.432Z,101065.78
2022-09-07T13:29:55.455Z,101064.47
2022-09-07T13:35:06.017Z,101057.75
2022-09-07T13:40:13.926Z,101045.47
2022-09-07T13:45:27.737Z,101035.03
2022-09-07T13:50:52.300Z,101045.63
2022-09-07T13:56:07.499Z,101043.78
2022-09-07T14:01:28.729Z,101049.38
2022-09-07T14:06:33.226Z,101038.66
2022-09-07T14:12:12.286Z,101050.31
2022-09-07T14:17:18.190Z,101044.03
2022-09-07T14:22:35.153Z,101043.91
2022-09-07T14:27:44.671Z,101045.16
2022-09-07T14:32:55.826Z,101037.78
2022-09-07T14:38:06.776Z,101035.00
2022-09-07T14:43:34.271Z,101031.16
2022-09-07T14:48:39.923Z,101028.75
2022-09-07T14:53:47.515Z,101027.53
2022-09-07T14:58:51.568Z,101028.81
2022-09-07T15:04:01.040Z,101015.72
2022-09-07T15:09:04.858Z,101024.81
2022-09-07T15:14:17.070Z,101030.31
2022-09-07T15:19:18.764Z,101020.53
2022-09-07T15:24:20.377Z,101011.88
2022-09-07T15:29:24.584Z,101020.66
2022-09-07T15:34:28.546Z,101014.34
2022-09-07T15:39:30.577Z,101013.16
2022-09-07T15:44:32.593Z,101007.44
2022-09-07T15:49:34.912Z,101009.09
2022-09-07T15:54:39.879Z,101007.38
2022-09-07T15:59:41.774Z,100996.22
2022-09-07T16:04:44.635Z,100990.47
2022-09-07T16:09:46.934Z,101001.16
2022-09-07T16:14:48.781Z,100985.25
2022-09-07T16:19:50.480Z,100979.53
2022-09-07T16:24:52.354Z,100976.97
2022-09-07T16:29:54.046Z,100994.59
2022-09-07T16:34:56.680Z,100989.44
2022-09-07T16:39:59.569Z,100980.78
2022-09-07T16:50:23.552Z,100974.69
2022-09-07T16:55:25.463Z,100968.16
2022-09-07T17:00:32.349Z,100972.28
2022-09-07T17:06:08.881Z,100976.72
2022-09-07T17:11:19.177Z,100965.34
2022-09-07T17:16:29.985Z,100963.63
2022-09-07T17:21:38.904Z,100968.47
2022-09-07T17:26:42.261Z,100954.94
2022-09-07T17:37:09.109Z,100947.25
2022-09-07T17:42:13.840Z,100948.63
2022-09-07T17:47:15.422Z,100951.63
2022-09-07T17:52:17.236Z,100953.31
2022-09-07T17:57:19.073Z,100961.69
2022-09-07T18:02:20.772Z,100957.81
2022-09-07T18:07:22.415Z,100962.19
2022-09-07T18:12:25.311Z,100951.81
2022-09-07T18:17:28.095Z,100953.88
2022-09-07T18:22:29.968Z,100951.75
2022-09-07T18:27:34.415Z,100949.75
2022-09-07T18:32:36.092Z,100951.94
2022-09-07T18:37:39.429Z,100943.63
2022-09-07T18:42:42.145Z,100946.34
2022-09-07T18:47:47.817Z,100945.25
2022-09-07T18:53:16.766Z,100938.19
2022-09-07T18:58:19.037Z,100937.84
2022-09-07T19:03:21.354Z,100936.91
2022-09-07T19:08:23.036Z,100932.03
2022-09-07T19:13:24.719Z,100934.44
2022-09-07T19:18:26.453Z,100931.63
2022-09-07T19:23:28.169Z,100933.97
2022-09-07T19:28:30.827Z,100928.53
2022-09-07T19:33:33.845Z,100934.78
2022-09-07T19:38:35.932Z,100936.75
2022-09-07T19:43:38.548Z,100946.25
2022-09-07T19:48:41.070Z,100945.31
2022-09-07T19:53:46.040Z,100941.66
2022-09-07T19:58:49.569Z,100934.38
2022-09-07T20:04:00.252Z,100925.38
2022-09-07T20:09:02.237Z,100920.59
2022-09-07T20:14:04.170Z,100911.44
2022-09-07T20:19:07.555Z,100914.47
2022-09-07T20:24:13.974Z,100908.19
2022-09-07T20:29:27.319Z,100908.63
2022-09-07T20:34:30.159Z,100899.38
2022-09-07T20:39:34.659Z,100910.66
2022-09-07T20:44:40.352Z,100911.00
2022-09-07T20:49:42.389Z,100911.59
2022-09-07T20:54:44.106Z,100921.25
2022-09-07T20:59:45.755Z,100914.25
2022-09-07T21:04:47.449Z,100925.63
2022-09-07T21:09:49.977Z,100923.06
2022-09-07T21:14:52.815Z,100912.38
2022-09-07T21:19:54.481Z,100921.81
2022-09-07T21:24:58.152Z,100928.06
2022-09-07T21:30:00.209Z,100929.53
2022-09-07T21:35:02.613Z,100936.00
2022-09-07T21:40:08.123Z,100926.16
2022-09-07T21:45:11.867Z,100923.84
2022-09-07T21:50:13.531Z,100926.56
2022-09-07T21:55:15.310Z,100912.81
2022-09-07T22:00:22.756Z,100929.25
2022-09-07T22:05:24.520Z,100931.72
2022-09-07T22:10:26.345Z,100910.66
2022-09-07T22:15:29.106Z,100921.75
2022-09-07T22:20:32.189Z,100915.41
2022-09-07T22:25:34.725Z,100899.25
2022-09-07T22:30:36.358Z,100878.47
2022-09-07T22:35:37.987Z,100858.16
2022-09-07T22:40:42.758Z,100857.31
2022-09-07T22:45:44.532Z,100855.50
2022-09-07T22:50:55.836Z,100843.72
2022-09-07T22:55:58.056Z,100836.06
2022-09-07T23:01:00.588Z,100832.31
2022-09-07T23:06:03.330Z,100832.06
2022-09-07T23:11:06.394Z,100818.94
2022-09-07T23:16:08.164Z,100810.31
2022-09-07T23:21:10.891Z,100801.94
2022-09-07T23:26:13.559Z,100801.69
2022-09-07T23:31:15.182Z,100795.75
2022-09-07T23:36:17.621Z,100784.59
2022-09-07T23:41:19.326Z,100778.91
2022-09-07T23:46:21.713Z,100773.31
2022-09-07T23:51:24.687Z,100766.00
2022-09-07T23:56:27.990Z,100757.53
